Matson Anchorage — KGTX — position and weather

sailwx.info

Track history (hours):
 
Tides and Currents Weather Stations Pressure Air Temp Water Temp Dewpoint Dewpoint Depression Visibility Wind Speed Wind Dir Waves Ship Positions

Matson Anchorage

Owner: MATSON NAVIGATION COMPANY OF ALASKA, INC., Tacoma, WA. More information available from US FCC via Universal Licensing System and Coast Guard Vessel Documentation Center.

Last reported at 2018-Feb-19 17:00 UTC. Time now 2018-Feb-22 04:25 UTC.
Position N 56°06' W 142°18'.

Type: Cargo ship. MMSI: 366557000.

Wind from 010 at 19 knots

Barometer 1024.0 mb
Air temperature 5.0 ° C
Visibility: greater than 10.8 NM
Dewpoint 2.5 ° C
Water temperature 5.6 ° C

Date/timePositionNaut miles runAvg speedWind from/ knotsBaromVisibWave heightAir tempDewpointWater temp
2018-Feb-19 17:00N 56°06' W 142°18'44819.5 010 / 191024.010.8 5.0 2.5 5.6
2018-Feb-18 18:00N 51°24' W 132°30'23911.9 030 / 301027.310.8 2.8-1.4 8.3
2018-Feb-17 21:55N 49°26' W 127°04'715.6
2018-Feb-17 21:29N 49°22' W 126°55'816.1
2018-Feb-17 21:00N 49°17' W 126°46'816.5
2018-Feb-17 20:31N 49°12' W 126°36'816.6
2018-Feb-17 20:00N 49°07' W 126°26'816.9
2018-Feb-17 19:30N 49°02' W 126°15'816.8
2018-Feb-17 19:00N 48°57' W 126°05'816.4
2018-Feb-17 18:31N 48°52' W 125°55'816.7
2018-Feb-17 18:01N 48°47' W 125°45'6330.4
2018-Feb-17 18:00N 48°42' W 125°42'611.5 280 / 301000.0 5.4 8.3 6.1 8.9
2018-Feb-17 17:30N 48°43' W 125°34'917.5
2018-Feb-17 17:01N 48°40' W 125°21'917.8
2018-Feb-17 16:30N 48°37' W 125°09'918.2
2018-Feb-17 16:00N 48°34' W 124°56'1019.1
2018-Feb-17 15:30N 48°30' W 124°43'1019.9
2018-Feb-17 15:01N 48°26' W 124°29'1020.2
2018-Feb-17 14:31N 48°23' W 124°15'1019.3
2018-Feb-17 14:00N 48°19' W 124°01'919.0
2018-Feb-17 13:31N 48°16' W 123°47'1018.5
2018-Feb-17 12:59N 48°15' W 123°33'816.6
2018-Feb-17 12:29N 48°10' W 123°23'611.4
2018-Feb-17 12:00N 48°10' W 123°15'917.4
2018-Feb-17 11:30N 48°12' W 123°02'918.4
2018-Feb-17 11:00N 48°12' W 122°49'1615.6
2018-Feb-17 10:01N 47°59' W 122°35'017.3
2018-Feb-17 09:59N 47°59' W 122°35'817.3
2018-Feb-17 09:30N 47°52' W 122°28'1019.4
2018-Feb-17 09:00N 47°42' W 122°27'1019.6
2018-Feb-17 08:30N 47°32' W 122°26'919.0
2018-Feb-17 08:00N 47°23' W 122°21'714.1
2018-Feb-17 07:31N 47°17' W 122°26'1 2.6
2018-Feb-17 06:59N 47°16' W 122°25'0 0.0
2018-Feb-17 06:29N 47°16' W 122°25'0 0.0
2018-Feb-17 05:59N 47°16' W 122°25'0 0.0
2018-Feb-17 05:29N 47°16' W 122°25'0 0.0
2018-Feb-17 04:59N 47°16' W 122°25'0 0.0
2018-Feb-17 04:26N 47°16' W 122°25'0 0.0
2018-Feb-17 03:44N 47°16' W 122°25'0 0.0
2018-Feb-17 02:44N 47°16' W 122°25'0 0.0
2018-Feb-17 02:21N 47°16' W 122°25'0 0.0
2018-Feb-17 01:56N 47°16' W 122°25'0 0.0
2018-Feb-17 01:26N 47°16' W 122°25'0 0.0
2018-Feb-17 00:44N 47°16' W 122°25'0 0.0
2018-Feb-17 00:26N 47°16' W 122°25'0 0.0
2018-Feb-16 23:56N 47°16' W 122°25'0 0.0
2018-Feb-16 23:29N 47°16' W 122°25'0 0.0
2018-Feb-16 22:56N 47°16' W 122°25'0 0.0
2018-Feb-16 22:26N 47°16' W 122°25'0 0.0
2018-Feb-16 21:59N 47°16' W 122°25'0 0.0
2018-Feb-16 21:26N 47°16' W 122°25'0 0.0
2018-Feb-16 20:56N 47°16' W 122°25'0 0.0
2018-Feb-16 20:23N 47°16' W 122°25'0 0.0
2018-Feb-16 19:53N 47°16' W 122°25'0 0.0
2018-Feb-16 18:44N 47°16' W 122°25'0 0.0
2018-Feb-16 18:14N 47°16' W 122°25'0 0.0
2018-Feb-16 17:45N 47°16' W 122°25'0 0.0
2018-Feb-16 12:38N 47°16' W 122°25'0 0.0
2018-Feb-16 12:20N 47°16' W 122°25'0 0.0
2018-Feb-16 11:50N 47°16' W 122°25'0 0.0
2018-Feb-16 11:26N 47°16' W 122°25'0 0.0
2018-Feb-16 10:56N 47°16' W 122°25'0 0.0
2018-Feb-16 02:26N 47°16' W 122°25'0 0.0
2018-Feb-16 01:02N 47°16' W 122°25'0 0.0
2018-Feb-16 00:44N 47°16' W 122°25'0 0.0
2018-Feb-16 00:21N 47°16' W 122°25'0 0.3
2018-Feb-16 00:00N 47°16' W 122°25'2 4.1
2018-Feb-15 23:30N 47°18' W 122°27'714.0
2018-Feb-15 23:01N 47°24' W 122°22'918.3
2018-Feb-15 22:30N 47°32' W 122°26'918.9
2018-Feb-15 22:00N 47°42' W 122°28'919.0
2018-Feb-15 21:30N 47°51' W 122°29'918.9
2018-Feb-15 21:00N 47°59' W 122°36'1019.2
2018-Feb-15 20:28N 48°08' W 122°43'919.6
2018-Feb-15 20:00N 48°11' W 122°57'2916.0
2018-Feb-15 18:10N 48°13' W 123°41'317.8
2018-Feb-15 18:00N 48°13' W 123°45'917.8
2018-Feb-15 17:31N 48°14' W 123°58'918.1
2018-Feb-15 17:00N 48°18' W 124°10'918.6
2018-Feb-15 16:30N 48°22' W 124°23'918.0
2018-Feb-15 16:01N 48°26' W 124°35'917.7
2018-Feb-15 15:31N 48°29' W 124°48'918.3
2018-Feb-15 15:00N 48°29' W 125°02'1019.2
2018-Feb-15 14:31N 48°31' W 125°15'1019.1
2018-Feb-15 14:00N 48°37' W 125°27'1019.3
2018-Feb-15 13:31N 48°42' W 125°39'1019.0
2018-Feb-15 13:00N 48°47' W 125°51'1019.3
2018-Feb-15 12:30N 48°53' W 126°04'1019.6
2018-Feb-15 12:00N 48°58' W 126°16'1019.8
2018-Feb-15 11:30N 49°04' W 126°28'1019.5
2018-Feb-15 11:00N 49°09' W 126°41'1019.5
2018-Feb-15 10:30N 49°15' W 126°53'1019.1
2018-Feb-15 10:00N 49°20' W 127°05'56718.9
2018-Feb-14 04:00N 54°30' W 139°54'17919.8 300 / 281021.510.8 6.1 3.7 5.6
2018-Feb-13 19:00N 55°54' W 144°30'   290 / 301017.010.8 42.038.440.0
2018-Feb-10 18:00N 57°24' W 145°30'23918.4 110 / 241017.9 2.2 5.0 2.5 5.0
2018-Feb-10 05:00N 55°18' W 139°24'4824.1 150 / 191032.810.8 4.4 0.5 6.1
2018-Feb-10 03:00N 54°48' W 138°18'18420.4 110 / 161033.010.8 3.9-0.2 6.1
2018-Feb-09 18:00N 53°00' W 134°06'   050 / 131031.210.8 5.0-1.9 7.8
Track history (hours):
 
Tides and Currents Weather Stations Pressure Air Temp Water Temp Dewpoint Dewpoint Depression Visibility Wind Speed Wind Dir Waves Ship Positions

Matson Anchorage

Owner: MATSON NAVIGATION COMPANY OF ALASKA, INC., Tacoma, WA. More information available from US FCC via Universal Licensing System and Coast Guard Vessel Documentation Center.

Last reported at 2018-Feb-19 17:00 UTC. Time now 2018-Feb-22 04:25 UTC.
Position N 56°06' W 142°18'.

Type: Cargo ship. MMSI: 366557000.

Wind from 010 at 19 knots

Barometer 1024.0 mb
Air temperature 5.0 ° C
Visibility: greater than 10.8 NM
Dewpoint 2.5 ° C
Water temperature 5.6 ° C

Date/timePositionNaut miles runAvg speedWind from/ knotsBaromVisibWave heightAir tempDewpointWater temp
2018-Feb-19 17:00N 56°06' W 142°18'44819.5 010 / 191024.010.8 5.0 2.5 5.6
2018-Feb-18 18:00N 51°24' W 132°30'23911.9 030 / 301027.310.8 2.8-1.4 8.3
2018-Feb-17 21:55N 49°26' W 127°04'715.6
2018-Feb-17 21:29N 49°22' W 126°55'816.1
2018-Feb-17 21:00N 49°17' W 126°46'816.5
2018-Feb-17 20:31N 49°12' W 126°36'816.6
2018-Feb-17 20:00N 49°07' W 126°26'816.9
2018-Feb-17 19:30N 49°02' W 126°15'816.8
2018-Feb-17 19:00N 48°57' W 126°05'816.4
2018-Feb-17 18:31N 48°52' W 125°55'816.7
2018-Feb-17 18:01N 48°47' W 125°45'6330.4
2018-Feb-17 18:00N 48°42' W 125°42'611.5 280 / 301000.0 5.4 8.3 6.1 8.9
2018-Feb-17 17:30N 48°43' W 125°34'917.5
2018-Feb-17 17:01N 48°40' W 125°21'917.8
2018-Feb-17 16:30N 48°37' W 125°09'918.2
2018-Feb-17 16:00N 48°34' W 124°56'1019.1
2018-Feb-17 15:30N 48°30' W 124°43'1019.9
2018-Feb-17 15:01N 48°26' W 124°29'1020.2
2018-Feb-17 14:31N 48°23' W 124°15'1019.3
2018-Feb-17 14:00N 48°19' W 124°01'919.0
2018-Feb-17 13:31N 48°16' W 123°47'1018.5
2018-Feb-17 12:59N 48°15' W 123°33'816.6
2018-Feb-17 12:29N 48°10' W 123°23'611.4
2018-Feb-17 12:00N 48°10' W 123°15'917.4
2018-Feb-17 11:30N 48°12' W 123°02'918.4
2018-Feb-17 11:00N 48°12' W 122°49'1615.6
2018-Feb-17 10:01N 47°59' W 122°35'017.3
2018-Feb-17 09:59N 47°59' W 122°35'817.3
2018-Feb-17 09:30N 47°52' W 122°28'1019.4
2018-Feb-17 09:00N 47°42' W 122°27'1019.6
2018-Feb-17 08:30N 47°32' W 122°26'919.0
2018-Feb-17 08:00N 47°23' W 122°21'714.1
2018-Feb-17 07:31N 47°17' W 122°26'1 2.6
2018-Feb-17 06:59N 47°16' W 122°25'0 0.0
2018-Feb-17 06:29N 47°16' W 122°25'0 0.0
2018-Feb-17 05:59N 47°16' W 122°25'0 0.0
2018-Feb-17 05:29N 47°16' W 122°25'0 0.0
2018-Feb-17 04:59N 47°16' W 122°25'0 0.0
2018-Feb-17 04:26N 47°16' W 122°25'0 0.0
2018-Feb-17 03:44N 47°16' W 122°25'0 0.0
2018-Feb-17 02:44N 47°16' W 122°25'0 0.0
2018-Feb-17 02:21N 47°16' W 122°25'0 0.0
2018-Feb-17 01:56N 47°16' W 122°25'0 0.0
2018-Feb-17 01:26N 47°16' W 122°25'0 0.0
2018-Feb-17 00:44N 47°16' W 122°25'0 0.0
2018-Feb-17 00:26N 47°16' W 122°25'0 0.0
2018-Feb-16 23:56N 47°16' W 122°25'0 0.0
2018-Feb-16 23:29N 47°16' W 122°25'0 0.0
2018-Feb-16 22:56N 47°16' W 122°25'0 0.0
2018-Feb-16 22:26N 47°16' W 122°25'0 0.0
2018-Feb-16 21:59N 47°16' W 122°25'0 0.0
2018-Feb-16 21:26N 47°16' W 122°25'0 0.0
2018-Feb-16 20:56N 47°16' W 122°25'0 0.0
2018-Feb-16 20:23N 47°16' W 122°25'0 0.0
2018-Feb-16 19:53N 47°16' W 122°25'0 0.0
2018-Feb-16 18:44N 47°16' W 122°25'0 0.0
2018-Feb-16 18:14N 47°16' W 122°25'0 0.0
2018-Feb-16 17:45N 47°16' W 122°25'0 0.0
2018-Feb-16 12:38N 47°16' W 122°25'0 0.0
2018-Feb-16 12:20N 47°16' W 122°25'0 0.0
2018-Feb-16 11:50N 47°16' W 122°25'0 0.0
2018-Feb-16 11:26N 47°16' W 122°25'0 0.0
2018-Feb-16 10:56N 47°16' W 122°25'0 0.0
2018-Feb-16 02:26N 47°16' W 122°25'0 0.0
2018-Feb-16 01:02N 47°16' W 122°25'0 0.0
2018-Feb-16 00:44N 47°16' W 122°25'0 0.0
2018-Feb-16 00:21N 47°16' W 122°25'0 0.3
2018-Feb-16 00:00N 47°16' W 122°25'2 4.1
2018-Feb-15 23:30N 47°18' W 122°27'714.0
2018-Feb-15 23:01N 47°24' W 122°22'918.3
2018-Feb-15 22:30N 47°32' W 122°26'918.9
2018-Feb-15 22:00N 47°42' W 122°28'919.0
2018-Feb-15 21:30N 47°51' W 122°29'918.9
2018-Feb-15 21:00N 47°59' W 122°36'1019.2
2018-Feb-15 20:28N 48°08' W 122°43'919.6
2018-Feb-15 20:00N 48°11' W 122°57'2916.0
2018-Feb-15 18:10N 48°13' W 123°41'317.8
2018-Feb-15 18:00N 48°13' W 123°45'917.8
2018-Feb-15 17:31N 48°14' W 123°58'918.1
2018-Feb-15 17:00N 48°18' W 124°10'918.6
2018-Feb-15 16:30N 48°22' W 124°23'918.0
2018-Feb-15 16:01N 48°26' W 124°35'917.7
2018-Feb-15 15:31N 48°29' W 124°48'918.3
2018-Feb-15 15:00N 48°29' W 125°02'1019.2
2018-Feb-15 14:31N 48°31' W 125°15'1019.1
2018-Feb-15 14:00N 48°37' W 125°27'1019.3
2018-Feb-15 13:31N 48°42' W 125°39'1019.0
2018-Feb-15 13:00N 48°47' W 125°51'1019.3
2018-Feb-15 12:30N 48°53' W 126°04'1019.6
2018-Feb-15 12:00N 48°58' W 126°16'1019.8
2018-Feb-15 11:30N 49°04' W 126°28'1019.5
2018-Feb-15 11:00N 49°09' W 126°41'1019.5
2018-Feb-15 10:30N 49°15' W 126°53'1019.1
2018-Feb-15 10:00N 49°20' W 127°05'56718.9
2018-Feb-14 04:00N 54°30' W 139°54'17919.8 300 / 281021.510.8 6.1 3.7 5.6
2018-Feb-13 19:00N 55°54' W 144°30'   290 / 301017.010.8 42.038.440.0
2018-Feb-10 18:00N 57°24' W 145°30'23918.4 110 / 241017.9 2.2 5.0 2.5 5.0
2018-Feb-10 05:00N 55°18' W 139°24'4824.1 150 / 191032.810.8 4.4 0.5 6.1
2018-Feb-10 03:00N 54°48' W 138°18'18420.4 110 / 161033.010.8 3.9-0.2 6.1
2018-Feb-09 18:00N 53°00' W 134°06'   050 / 131031.210.8 5.0-1.9 7.8

Dump ship's entire track history